createdAt,value
2023-05-17T00:01:59.797Z,100198.52
2023-05-17T00:07:01.405Z,100193.85
2023-05-17T00:12:03.269Z,100203.52
2023-05-17T00:17:05.151Z,100210.89
2023-05-17T00:22:06.749Z,100199.52
2023-05-17T00:27:08.354Z,100186.52
2023-05-17T00:32:09.925Z,100186.94
2023-05-17T00:37:11.484Z,100193.99
2023-05-17T00:42:13.353Z,100181.92
2023-05-17T00:47:14.933Z,100188.31
2023-05-17T00:52:16.650Z,100196.21
2023-05-17T00:57:18.542Z,100198.32
2023-05-17T01:02:20.197Z,100180.17
2023-05-17T01:07:21.894Z,100187.88
2023-05-17T01:12:46.194Z,100212.02
2023-05-17T01:18:06.160Z,100193.19
2023-05-17T01:23:25.982Z,100170.65
2023-05-17T01:28:28.220Z,100177.21
2023-05-17T01:33:31.260Z,100175.86
2023-05-17T01:38:32.912Z,100180.80
2023-05-17T01:43:38.381Z,100179.34
2023-05-17T01:48:48.909Z,100187.67
2023-05-17T01:53:57.249Z,100193.31
2023-05-17T01:59:03.060Z,100186.29
2023-05-17T02:04:05.081Z,100184.66
2023-05-17T02:09:06.780Z,100186.65
2023-05-17T02:14:08.330Z,100185.27
2023-05-17T02:19:09.880Z,100173.34
2023-05-17T02:24:11.465Z,100171.40
2023-05-17T02:29:13.058Z,100176.82
2023-05-17T02:34:14.635Z,100178.16
2023-05-17T02:39:16.717Z,100190.38
2023-05-17T02:44:18.368Z,100184.02
2023-05-17T02:49:19.953Z,100179.39
2023-05-17T02:54:21.737Z,100191.54
2023-05-17T02:59:23.271Z,100212.20
2023-05-17T03:04:24.880Z,100220.86
2023-05-17T03:09:26.546Z,100205.52
2023-05-17T03:14:28.117Z,100185.80
2023-05-17T03:19:29.884Z,100182.69
2023-05-17T03:24:31.430Z,100187.59
2023-05-17T03:29:32.955Z,100190.43
2023-05-17T03:34:34.493Z,100195.48
2023-05-17T03:39:36.015Z,100195.67
2023-05-17T03:44:37.553Z,100187.23
2023-05-17T03:49:39.300Z,100190.30
2023-05-17T03:54:40.881Z,100191.31
2023-05-17T03:59:42.556Z,100194.05
2023-05-17T04:04:51.180Z,100196.46
2023-05-17T04:09:53.441Z,100207.03
2023-05-17T04:14:55.108Z,100213.69
2023-05-17T04:19:56.814Z,100219.16
2023-05-17T04:24:58.760Z,100220.94
2023-05-17T04:30:00.789Z,100217.29
2023-05-17T04:35:03.330Z,100221.64
2023-05-17T04:40:07.129Z,100225.80
2023-05-17T04:45:09.458Z,100231.02
2023-05-17T04:50:11.654Z,100230.34
2023-05-17T04:55:13.677Z,100231.55
2023-05-17T05:00:22.548Z,100230.96
2023-05-17T05:05:25.571Z,100238.10
2023-05-17T05:10:28.797Z,100239.99
2023-05-17T05:15:32.380Z,100238.26
2023-05-17T05:20:34.040Z,100244.53
2023-05-17T05:25:37.941Z,100242.39
2023-05-17T05:30:46.578Z,100239.61
2023-05-17T05:35:48.657Z,100241.80
2023-05-17T05:40:50.337Z,100236.74
2023-05-17T05:45:51.874Z,100229.09
2023-05-17T05:50:53.408Z,100223.91
2023-05-17T05:55:54.965Z,100214.09
2023-05-17T06:00:57.459Z,100213.17
2023-05-17T06:05:59.117Z,100219.83
2023-05-17T06:11:03.474Z,100222.45
2023-05-17T06:16:06.244Z,100235.98
2023-05-17T06:21:07.996Z,100242.65
2023-05-17T06:26:10.955Z,100244.02
2023-05-17T06:31:12.644Z,100243.38
2023-05-17T06:36:14.459Z,100253.77
2023-05-17T06:41:16.194Z,100265.25
2023-05-17T06:46:17.773Z,100271.64
2023-05-17T06:51:19.332Z,100283.06
2023-05-17T06:56:22.047Z,100292.61
2023-05-17T07:01:23.556Z,100300.19
2023-05-17T07:06:25.218Z,100309.04
2023-05-17T07:11:26.776Z,100307.93
2023-05-17T07:16:28.914Z,100313.84
2023-05-17T07:21:32.065Z,100321.08
2023-05-17T07:26:33.683Z,100316.73
2023-05-17T07:31:35.473Z,100312.34
2023-05-17T07:36:37.311Z,100303.98
2023-05-17T07:41:40.028Z,100294.15
2023-05-17T07:46:42.025Z,100295.61
2023-05-17T07:51:44.176Z,100306.30
2023-05-17T07:56:45.754Z,100302.89
2023-05-17T08:01:47.504Z,100312.48
2023-05-17T08:06:50.250Z,100316.02
2023-05-17T08:11:51.896Z,100318.92
2023-05-17T08:16:53.425Z,100325.25
2023-05-17T08:21:54.974Z,100328.08
2023-05-17T08:26:56.659Z,100328.46
2023-05-17T08:31:58.485Z,100337.31
2023-05-17T08:37:00.167Z,100337.41
2023-05-17T08:42:03.314Z,100343.83
2023-05-17T08:47:06.648Z,100351.93
2023-05-17T08:52:10.465Z,100355.45
2023-05-17T08:57:13.978Z,100356.19
2023-05-17T09:02:16.377Z,100357.91
2023-05-17T09:07:18.113Z,100358.36
2023-05-17T09:12:25.346Z,100356.00
2023-05-17T09:17:27.511Z,100358.38
2023-05-17T09:22:29.277Z,100364.48
2023-05-17T09:27:31.901Z,100361.40
2023-05-17T09:32:33.629Z,100358.45
2023-05-17T09:37:38.530Z,100363.98
2023-05-17T09:42:40.867Z,100365.14
2023-05-17T09:47:42.534Z,100369.21
2023-05-17T09:52:44.396Z,100378.61
2023-05-17T09:57:47.118Z,100380.74
2023-05-17T10:02:51.160Z,100388.54
2023-05-17T10:07:56.420Z,100395.38
2023-05-17T10:12:59.533Z,100391.41
2023-05-17T10:18:02.110Z,100397.36
2023-05-17T10:23:06.337Z,100400.40
2023-05-17T10:28:12.757Z,100403.73
2023-05-17T10:33:16.280Z,100411.65
2023-05-17T10:38:20.361Z,100406.39
2023-05-17T10:43:23.660Z,100411.73
2023-05-17T10:48:29.119Z,100412.48
2023-05-17T10:53:30.875Z,100416.25
2023-05-17T10:58:32.439Z,100430.86
2023-05-17T11:03:34.634Z,100432.48
2023-05-17T11:08:38.860Z,100441.05
2023-05-17T11:13:56.283Z,100445.29
2023-05-17T11:19:08.061Z,100457.43
2023-05-17T11:24:11.287Z,100468.12
2023-05-17T11:29:13.134Z,100467.80
2023-05-17T11:34:14.986Z,100466.30
2023-05-17T11:39:21.119Z,100464.70
2023-05-17T11:44:30.734Z,100468.52
2023-05-17T11:49:37.144Z,100467.29
2023-05-17T11:54:40.752Z,100471.41
2023-05-17T11:59:45.611Z,100477.31
2023-05-17T12:04:47.232Z,100483.33
2023-05-17T12:09:49.376Z,100496.33
2023-05-17T12:14:51.031Z,100497.30
2023-05-17T12:19:54.194Z,100503.58
2023-05-17T12:24:56.078Z,100509.53
2023-05-17T12:29:57.678Z,100512.48
2023-05-17T12:34:59.398Z,100517.50
2023-05-17T12:40:06.753Z,100513.27
2023-05-17T12:45:13.227Z,100520.63
2023-05-17T12:50:14.842Z,100519.52
2023-05-17T12:55:16.471Z,100521.61
2023-05-17T13:00:33.614Z,100521.36
2023-05-17T13:05:35.478Z,100521.70
2023-05-17T13:10:37.076Z,100526.27
2023-05-17T13:15:38.623Z,100525.71
2023-05-17T13:20:40.243Z,100531.44
2023-05-17T13:25:41.790Z,100539.31
2023-05-17T13:30:56.870Z,100546.83
2023-05-17T13:35:58.631Z,100549.08
2023-05-17T13:41:00.494Z,100552.40
2023-05-17T13:46:03.962Z,100554.85
2023-05-17T13:51:05.553Z,100554.64
2023-05-17T13:56:07.734Z,100559.46
2023-05-17T14:01:09.748Z,100560.22
2023-05-17T14:06:11.425Z,100558.86
2023-05-17T14:11:13.266Z,100563.70
2023-05-17T14:16:14.804Z,100567.77
2023-05-17T14:21:16.380Z,100570.77
2023-05-17T14:26:18.135Z,100577.23
2023-05-17T14:31:19.662Z,100586.85
2023-05-17T14:36:21.274Z,100591.84
2023-05-17T14:41:23.089Z,100597.15
2023-05-17T14:46:24.852Z,100605.86
2023-05-17T14:51:26.725Z,100615.16
2023-05-17T14:56:28.777Z,100621.98
2023-05-17T15:01:30.299Z,100623.98
2023-05-17T15:06:32.444Z,100630.33
2023-05-17T15:11:34.204Z,100630.18
2023-05-17T15:16:36.220Z,100635.17
2023-05-17T15:21:38.041Z,100631.02
2023-05-17T15:26:39.566Z,100637.70
2023-05-17T15:31:41.400Z,100640.48
2023-05-17T15:36:42.983Z,100643.38
2023-05-17T15:41:45.558Z,100645.49
2023-05-17T15:46:47.117Z,100655.52
2023-05-17T15:51:48.687Z,100658.77
2023-05-17T15:56:52.945Z,100667.54
2023-05-17T16:01:54.504Z,100669.70
2023-05-17T16:06:56.188Z,100673.88
2023-05-17T16:11:57.748Z,100680.75
2023-05-17T16:16:59.320Z,100683.28
2023-05-17T16:22:01.008Z,100685.20
2023-05-17T16:27:03.491Z,100689.83
2023-05-17T16:32:07.937Z,100694.20
2023-05-17T16:37:09.676Z,100699.04
2023-05-17T16:42:11.455Z,100709.30
2023-05-17T16:47:13.133Z,100714.02
2023-05-17T16:52:14.733Z,100722.44
2023-05-17T16:57:16.533Z,100725.41
2023-05-17T17:02:18.156Z,100728.81
2023-05-17T17:07:20.150Z,100733.33
2023-05-17T17:12:25.166Z,100738.13
2023-05-17T17:17:29.189Z,100744.59
2023-05-17T17:22:30.775Z,100745.90
2023-05-17T17:27:32.337Z,100743.52
2023-05-17T17:32:34.155Z,100753.00
2023-05-17T17:37:36.200Z,100761.07
2023-05-17T17:42:37.782Z,100764.09
2023-05-17T17:47:39.366Z,100767.63
2023-05-17T17:52:41.026Z,100769.45
2023-05-17T17:57:42.710Z,100770.40
2023-05-17T18:02:44.555Z,100781.95
2023-05-17T18:07:46.116Z,100790.05
2023-05-17T18:12:49.544Z,100797.86
2023-05-17T18:17:54.227Z,100805.79
2023-05-17T18:22:55.938Z,100816.29
2023-05-17T18:27:57.941Z,100822.52
2023-05-17T18:32:59.528Z,100828.59
2023-05-17T18:38:01.337Z,100841.89
2023-05-17T18:43:02.926Z,100848.80
2023-05-17T18:48:04.784Z,100853.80
2023-05-17T18:53:06.697Z,100859.98
2023-05-17T18:58:08.309Z,100871.88
2023-05-17T19:03:09.904Z,100877.60
2023-05-17T19:08:11.490Z,100880.91
2023-05-17T19:13:13.825Z,100880.05
2023-05-17T19:18:15.539Z,100876.98
2023-05-17T19:23:17.153Z,100881.84
2023-05-17T19:28:19.592Z,100881.17
2023-05-17T19:33:21.145Z,100881.52
2023-05-17T19:38:22.728Z,100881.37
2023-05-17T19:43:25.356Z,100882.29
2023-05-17T19:48:26.876Z,100884.91
2023-05-17T19:53:36.982Z,100879.83
2023-05-17T19:58:46.174Z,100879.02
2023-05-17T20:03:47.897Z,100884.01
2023-05-17T20:08:49.556Z,100879.41
2023-05-17T20:13:51.276Z,100881.98
2023-05-17T20:18:52.884Z,100884.58
2023-05-17T20:24:01.353Z,100889.05
2023-05-17T20:29:05.742Z,100889.39
2023-05-17T20:34:07.511Z,100891.65
2023-05-17T20:39:09.296Z,100898.39
2023-05-17T20:44:12.711Z,100907.98
2023-05-17T20:49:14.384Z,100912.80
2023-05-17T20:54:15.946Z,100913.98
2023-05-17T20:59:20.989Z,100914.84
2023-05-17T21:04:58.139Z,100918.30
2023-05-17T21:09:59.857Z,100932.41
2023-05-17T21:15:16.708Z,100943.11
2023-05-17T21:20:19.652Z,100943.20
2023-05-17T21:25:22.066Z,100955.96
2023-05-17T21:30:25.257Z,100956.50
2023-05-17T21:35:26.814Z,100962.20
2023-05-17T21:40:28.783Z,100967.41
2023-05-17T21:45:30.643Z,100966.23
2023-05-17T21:50:32.586Z,100970.38
2023-05-17T21:55:41.263Z,100972.58
2023-05-17T22:00:56.364Z,100974.90
2023-05-17T22:05:58.060Z,100984.77
2023-05-17T22:10:59.686Z,100988.60
2023-05-17T22:16:02.081Z,100988.34
2023-05-17T22:21:03.777Z,100991.56
2023-05-17T22:26:05.356Z,101002.91
2023-05-17T22:31:07.584Z,101006.16
2023-05-17T22:36:14.093Z,101020.40
2023-05-17T22:41:15.934Z,101032.94
2023-05-17T22:46:17.551Z,101028.79
2023-05-17T22:51:19.810Z,101027.23
2023-05-17T22:56:21.546Z,101028.02
2023-05-17T23:01:23.159Z,101035.17
2023-05-17T23:06:26.233Z,101046.38
2023-05-17T23:11:28.471Z,101052.11
2023-05-17T23:16:30.065Z,101066.61
2023-05-17T23:21:33.441Z,101072.15
2023-05-17T23:26:35.338Z,101079.55
2023-05-17T23:31:37.718Z,101080.92
2023-05-17T23:36:39.510Z,101088.00
2023-05-17T23:41:41.145Z,101092.64
2023-05-17T23:46:44.564Z,101097.29
2023-05-17T23:51:46.627Z,101099.52
2023-05-17T23:56:48.249Z,101115.13
